Etusivu
METAR-TAF:

METAR-TAF

Lentoasemat :

Aarhus, Tanska

Leveyspiiri: 56-18N, Pituuspiiri: 010-37E, korkeus merenpinnasta: 23 m

Tämänhetkinen sää

Tämä raportti tehtiin 15 minuuttia sitten, kello 12.50 UTC
Tuuli 14 kn pohjoisesta puuskistuen 24 kn:hen, vaihdellen pohjoisen/luoteen ja koillisen välillä
Lämpötila 5°C
Kosteus 45%
Ilmanpaine 1027 hPa
Näkyvyys 10 km tai enemmän

METAR: EKAH 301250Z AUTO 01014G24KT 340V040 9999NDV NCD 05/M06 Q1027

Aika: 15:05 (13:05 UTC)

Sääennuste

Tämä raportti tehtiin 2 tuntia ja 54 minuuttia sitten, kello 10.11 UTC
Ennuste voimassa 30. päivästä klo 10 UTC - 30. päivään klo 14 UTC
Tuuli 12 kn pohjoisesta/koillisesta
Näkyvyys 10 km tai enemmän
Muutamia pilviä 3000 ft:n korkeudessa

TAF: EKAH 301011Z 3010/3014 02012KT 9999 FEW030

Säähavainnot ja -ennusteet yli 4000 lentoasemalta (METAR- ja TAF-raportit).

Käytössä olevat sääasemat on merkitty karttaan keltaisilla ja punaisilla pisteillä.

Aseta hiiri pisteen päälle nähdäksesi sääaseman nimen.

Klikkaa sitten nähdäksesi säähavainnot ja -ennusteet.

Kartan vaihtaminen: klikkaa mustalla rastilla varustettuja vihreitä pisteitä, niin voit zoomata sisään; viivalla varustettua vihreää pistettä, niin voit zoomata ulos tai vihreitä nuolia, niin pääset viereisille kartoille.


METAR-TAF: